createdAt,value
2022-11-25T00:00:29.221Z,23.60
2022-11-25T00:03:05.699Z,23.60
2022-11-25T00:05:41.880Z,23.70
2022-11-25T00:08:19.264Z,23.70
2022-11-25T00:10:55.644Z,23.80
2022-11-25T00:13:32.040Z,23.60
2022-11-25T00:16:12.034Z,23.50
2022-11-25T00:18:54.853Z,23.40
2022-11-25T00:21:33.194Z,23.30
2022-11-25T00:24:12.085Z,23.40
2022-11-25T00:26:48.288Z,23.40
2022-11-25T00:29:25.257Z,23.50
2022-11-25T00:32:03.321Z,23.50
2022-11-25T00:37:18.395Z,23.20
2022-11-25T00:39:55.677Z,23.20
2022-11-25T00:42:47.243Z,23.30
2022-11-25T00:45:23.863Z,23.30
2022-11-25T00:50:41.000Z,23.10
2022-11-25T00:53:22.250Z,23.30
2022-11-25T00:56:17.995Z,23.40
2022-11-25T00:58:58.201Z,23.50
2022-11-25T01:01:35.098Z,23.60
2022-11-25T01:04:14.174Z,23.80
2022-11-25T01:06:50.674Z,23.80
2022-11-25T01:09:26.832Z,23.80
2022-11-25T01:12:04.460Z,23.80
2022-11-25T01:14:40.924Z,23.90
2022-11-25T01:17:17.733Z,23.80
2022-11-25T01:19:55.756Z,23.70
2022-11-25T01:22:32.832Z,23.70
2022-11-25T01:25:11.515Z,23.90
2022-11-25T01:27:48.874Z,23.90
2022-11-25T01:30:25.675Z,23.80
2022-11-25T01:33:02.828Z,23.80
2022-11-25T01:35:47.104Z,23.60
2022-11-25T01:38:24.335Z,23.60
2022-11-25T02:02:16.230Z,23.70
2022-11-25T02:04:56.451Z,23.70
2022-11-25T02:28:46.578Z,23.20
2022-11-25T02:31:27.075Z,23.30
2022-11-25T02:34:04.249Z,23.30
2022-11-25T02:39:22.795Z,23.10
2022-11-25T02:42:05.166Z,23.40
2022-11-25T02:44:42.019Z,23.60
2022-11-25T02:47:19.873Z,23.60
2022-11-25T02:49:56.223Z,23.80
2022-11-25T03:05:35.684Z,23.20
2022-11-25T03:08:12.957Z,23.20
2022-11-25T03:10:49.399Z,23.20
2022-11-25T03:16:05.821Z,23.20
2022-11-25T03:18:43.591Z,23.30
2022-11-25T03:21:19.427Z,23.10
2022-11-25T03:23:55.970Z,23.30
2022-11-25T03:26:33.167Z,23.30
2022-11-25T03:29:11.680Z,23.50
2022-11-25T03:31:48.009Z,23.40
2022-11-25T03:34:25.461Z,23.40
2022-11-25T03:42:18.479Z,23.30
2022-11-25T03:44:56.866Z,23.20
2022-11-25T03:55:28.800Z,22.90
2022-11-25T04:11:15.727Z,23.70
2022-11-25T04:21:52.299Z,23.30
2022-11-25T04:24:29.123Z,23.50
2022-11-25T04:27:05.803Z,23.60
2022-11-25T04:29:42.776Z,23.70
2022-11-25T04:32:25.019Z,23.60
2022-11-25T04:35:01.605Z,23.60
2022-11-25T04:40:19.352Z,23.50
2022-11-25T04:43:07.523Z,23.60
2022-11-25T04:48:49.883Z,23.50
2022-11-25T04:51:27.569Z,23.60
2022-11-25T04:54:12.185Z,23.60
2022-11-25T05:10:20.169Z,23.40
2022-11-25T05:12:56.902Z,23.30
2022-11-25T05:15:33.539Z,23.20
2022-11-25T05:18:12.083Z,23.10
2022-11-25T05:20:55.435Z,23.10
2022-11-25T05:23:33.014Z,23.00
2022-11-25T05:26:10.174Z,22.70
2022-11-25T05:28:54.765Z,22.60
2022-11-25T05:31:31.438Z,22.70
2022-11-25T05:34:08.683Z,22.40
2022-11-25T05:36:46.668Z,22.50
2022-11-25T05:39:23.477Z,22.40
2022-11-25T05:42:22.723Z,22.60
2022-11-25T05:44:59.630Z,22.70
2022-11-25T05:47:36.318Z,22.70
2022-11-25T05:55:59.140Z,22.50
2022-11-25T05:58:53.170Z,22.60
2022-11-25T06:01:31.019Z,22.60
2022-11-25T06:06:44.778Z,22.70
2022-11-25T06:09:22.783Z,22.60
2022-11-25T06:33:40.523Z,22.70
2022-11-25T06:36:18.954Z,22.60
2022-11-25T06:44:11.394Z,22.30
2022-11-25T06:46:48.039Z,22.30
2022-11-25T06:49:25.423Z,22.30
2022-11-25T06:54:42.707Z,22.20
2022-11-25T06:57:23.739Z,22.20
2022-11-25T07:00:00.515Z,22.00
2022-11-25T07:02:41.688Z,22.10
2022-11-25T07:05:20.672Z,22.10
2022-11-25T07:07:56.382Z,22.10
2022-11-25T07:10:32.734Z,22.00
2022-11-25T07:13:10.705Z,22.00
2022-11-25T07:34:10.746Z,22.10
2022-11-25T07:36:47.525Z,22.00
2022-11-25T08:10:56.024Z,22.00
2022-11-25T08:13:32.427Z,21.90
2022-11-25T08:16:12.566Z,21.90
2022-11-25T08:18:49.203Z,21.90
2022-11-25T08:21:25.668Z,21.80
2022-11-25T08:24:04.911Z,21.80
2022-11-25T08:26:41.968Z,21.80
2022-11-25T08:29:20.833Z,21.80
2022-11-25T08:31:58.970Z,21.80
2022-11-25T08:34:35.771Z,21.80
2022-11-25T08:37:15.973Z,21.80
2022-11-25T08:39:55.076Z,21.90
2022-11-25T08:42:31.457Z,21.80
2022-11-25T08:45:09.379Z,21.80
2022-11-25T08:47:49.491Z,21.80
2022-11-25T08:50:27.223Z,21.70
2022-11-25T08:53:03.390Z,21.70
2022-11-25T08:55:42.769Z,21.80
2022-11-25T08:58:18.307Z,21.50
2022-11-25T09:00:56.733Z,21.50
2022-11-25T09:03:38.386Z,21.50
2022-11-25T09:06:16.091Z,21.60
2022-11-25T09:08:52.356Z,21.50
2022-11-25T09:11:29.605Z,21.60
2022-11-25T09:14:05.731Z,21.50
2022-11-25T09:16:42.624Z,21.50
2022-11-25T09:19:21.393Z,21.60
2022-11-25T09:21:58.338Z,21.40
2022-11-25T09:24:34.573Z,21.40
2022-11-25T09:27:11.003Z,21.30
2022-11-25T09:29:46.995Z,21.30
2022-11-25T09:32:24.313Z,21.40
2022-11-25T09:35:02.452Z,21.40
2022-11-25T09:37:39.710Z,21.50
2022-11-25T09:40:23.683Z,21.40
2022-11-25T09:43:22.577Z,21.40
2022-11-25T09:46:36.265Z,21.40
2022-11-25T09:49:29.131Z,21.50
2022-11-25T09:52:18.290Z,21.50
2022-11-25T09:55:01.110Z,21.30
2022-11-25T09:57:52.874Z,21.30
2022-11-25T10:00:40.785Z,21.40
2022-11-25T10:03:26.180Z,21.60
2022-11-25T10:06:08.958Z,21.50
2022-11-25T10:08:50.279Z,21.60
2022-11-25T10:11:39.757Z,21.60
2022-11-25T10:14:24.247Z,21.60
2022-11-25T10:17:10.736Z,21.60
2022-11-25T10:19:58.336Z,21.60
2022-11-25T10:22:39.468Z,21.60
2022-11-25T10:25:24.640Z,21.60
2022-11-25T10:28:05.086Z,21.50
2022-11-25T10:30:47.225Z,21.40
2022-11-25T10:33:29.439Z,21.50
2022-11-25T10:36:15.945Z,21.40
2022-11-25T10:39:01.838Z,21.50
2022-11-25T10:41:48.601Z,21.50
2022-11-25T10:44:33.530Z,21.40
2022-11-25T10:47:29.778Z,21.50
2022-11-25T10:50:22.872Z,21.40
2022-11-25T10:53:04.112Z,21.40
2022-11-25T10:55:44.064Z,21.40
2022-11-25T10:58:35.260Z,21.40
2022-11-25T11:01:30.107Z,21.40
2022-11-25T11:04:20.049Z,21.50
2022-11-25T11:06:56.894Z,21.50
2022-11-25T11:09:40.371Z,21.50
2022-11-25T11:12:29.428Z,21.50
2022-11-25T11:15:26.497Z,21.50
2022-11-25T11:18:04.437Z,21.50
2022-11-25T11:20:41.048Z,21.50
2022-11-25T11:23:18.668Z,21.50
2022-11-25T11:26:03.908Z,21.40
2022-11-25T11:28:46.470Z,21.40
2022-11-25T11:31:27.734Z,21.40
2022-11-25T11:34:15.891Z,21.40
2022-11-25T11:37:10.894Z,21.40
2022-11-25T11:40:06.068Z,21.40
2022-11-25T11:42:50.706Z,21.30
2022-11-25T11:45:46.062Z,21.30
2022-11-25T11:48:31.118Z,21.30
2022-11-25T11:51:17.262Z,21.30
2022-11-25T11:54:04.517Z,21.30
2022-11-25T11:56:46.794Z,21.30
2022-11-25T11:59:50.664Z,21.30
2022-11-25T12:02:36.690Z,21.40
2022-11-25T12:05:25.648Z,21.40
2022-11-25T12:08:11.756Z,21.40
2022-11-25T12:10:53.592Z,21.30
2022-11-25T12:13:41.266Z,21.30
2022-11-25T12:16:21.453Z,21.30
2022-11-25T12:19:03.945Z,21.30
2022-11-25T12:21:48.724Z,21.20
2022-11-25T12:24:31.282Z,21.20
2022-11-25T12:27:11.034Z,21.20
2022-11-25T12:29:59.061Z,21.20
2022-11-25T12:32:56.529Z,21.20
2022-11-25T12:35:53.784Z,21.20
2022-11-25T12:38:41.020Z,21.20
2022-11-25T12:41:25.620Z,21.30
2022-11-25T12:44:09.309Z,21.30
2022-11-25T12:46:49.561Z,21.30
2022-11-25T12:49:28.833Z,21.30
2022-11-25T12:52:36.047Z,21.30
2022-11-25T12:55:23.216Z,21.30
2022-11-25T12:58:42.771Z,21.20
2022-11-25T13:01:53.594Z,21.20
2022-11-25T13:05:07.584Z,21.30
2022-11-25T13:08:09.182Z,21.20
2022-11-25T13:11:10.626Z,21.30
2022-11-25T13:13:55.297Z,21.20
2022-11-25T13:16:32.999Z,21.20
2022-11-25T13:19:16.291Z,21.20
2022-11-25T13:22:06.257Z,21.20
2022-11-25T13:24:46.447Z,21.20
2022-11-25T13:27:58.999Z,21.10
2022-11-25T13:30:46.311Z,21.00
2022-11-25T13:34:12.382Z,21.00
2022-11-25T13:36:52.798Z,20.90
2022-11-25T13:39:36.533Z,20.90
2022-11-25T13:42:25.050Z,20.90
2022-11-25T13:45:05.314Z,20.80
2022-11-25T13:47:43.128Z,20.80
2022-11-25T13:50:42.014Z,20.80
2022-11-25T13:53:31.470Z,20.80
2022-11-25T13:56:29.375Z,20.80
2022-11-25T13:59:25.783Z,20.80
2022-11-25T14:02:36.025Z,20.80
2022-11-25T14:05:32.714Z,20.80
2022-11-25T14:08:36.031Z,20.80
2022-11-25T14:12:01.132Z,20.80
2022-11-25T14:14:53.257Z,20.70
2022-11-25T14:17:57.418Z,20.60
2022-11-25T14:20:48.184Z,20.70
2022-11-25T14:23:59.200Z,20.60
2022-11-25T14:26:53.569Z,20.70
2022-11-25T14:29:34.150Z,20.70
2022-11-25T14:32:17.916Z,20.70
2022-11-25T14:35:01.779Z,20.60
2022-11-25T14:37:45.754Z,20.60
2022-11-25T14:40:26.531Z,20.70
2022-11-25T14:43:08.066Z,20.60
2022-11-25T14:45:44.427Z,20.60
2022-11-25T14:48:23.630Z,20.60
2022-11-25T14:51:08.684Z,20.60
2022-11-25T14:53:49.999Z,20.60
2022-11-25T14:56:31.636Z,20.60
2022-11-25T14:59:08.289Z,20.50
2022-11-25T15:01:55.646Z,20.50
2022-11-25T15:04:31.717Z,20.50
2022-11-25T15:07:29.466Z,20.50
2022-11-25T15:10:08.251Z,20.40
2022-11-25T15:12:47.243Z,20.50
2022-11-25T15:15:26.662Z,20.60
2022-11-25T15:18:03.181Z,20.60
2022-11-25T15:20:40.066Z,20.60
2022-11-25T15:23:23.375Z,20.60
2022-11-25T15:26:00.270Z,20.60
2022-11-25T15:28:41.489Z,20.60
2022-11-25T15:31:22.965Z,20.60
2022-11-25T15:34:04.147Z,20.60
2022-11-25T15:36:40.798Z,20.60
2022-11-25T15:39:32.385Z,20.50
2022-11-25T15:42:15.995Z,20.50
2022-11-25T15:44:56.085Z,20.50
2022-11-25T15:47:33.653Z,20.50
2022-11-25T15:50:13.129Z,20.40
2022-11-25T15:52:53.178Z,20.50
2022-11-25T15:55:36.965Z,20.40
2022-11-25T15:58:17.777Z,20.50
2022-11-25T16:01:07.748Z,20.50
2022-11-25T16:03:44.777Z,20.40
2022-11-25T16:06:27.131Z,20.40
2022-11-25T16:09:05.584Z,20.40
2022-11-25T16:11:52.036Z,20.40
2022-11-25T16:14:33.394Z,20.40
2022-11-25T16:17:11.290Z,20.40
2022-11-25T16:19:50.192Z,20.30
2022-11-25T16:22:28.206Z,20.30
2022-11-25T16:25:05.206Z,20.30
2022-11-25T16:27:43.784Z,20.30
2022-11-25T16:30:25.154Z,20.30
2022-11-25T16:33:26.778Z,20.30
2022-11-25T16:36:44.995Z,20.20
2022-11-25T16:39:21.531Z,20.20
2022-11-25T16:42:04.183Z,20.20
2022-11-25T16:44:43.601Z,20.20
2022-11-25T16:47:20.316Z,20.20
2022-11-25T16:49:56.695Z,20.30
2022-11-25T16:52:33.412Z,20.30
2022-11-25T16:55:10.680Z,20.30
2022-11-25T16:57:47.674Z,20.30
2022-11-25T17:00:26.318Z,20.30
2022-11-25T17:03:02.163Z,20.40
2022-11-25T17:05:40.343Z,20.30
2022-11-25T17:08:16.942Z,20.40
2022-11-25T17:10:53.637Z,20.40
2022-11-25T17:13:30.311Z,20.40
2022-11-25T17:16:09.217Z,20.40
2022-11-25T17:18:45.686Z,20.30
2022-11-25T17:21:22.202Z,20.30
2022-11-25T17:23:59.975Z,20.30
2022-11-25T17:26:43.076Z,20.20
2022-11-25T17:29:22.128Z,20.10
2022-11-25T17:32:00.804Z,20.10
2022-11-25T17:34:39.582Z,20.00
2022-11-25T17:37:21.248Z,19.90
2022-11-25T17:39:58.213Z,19.90
2022-11-25T17:42:38.042Z,19.90
2022-11-25T17:45:18.790Z,19.80
2022-11-25T17:47:57.542Z,19.90
2022-11-25T17:50:33.684Z,19.80
2022-11-25T17:53:10.233Z,19.80
2022-11-25T17:55:46.957Z,19.90
2022-11-25T17:58:23.148Z,19.80
2022-11-25T18:00:59.669Z,19.80
2022-11-25T18:03:37.682Z,19.70
2022-11-25T18:06:14.306Z,19.70
2022-11-25T18:08:51.131Z,19.70
2022-11-25T18:11:27.626Z,19.70
2022-11-25T18:14:04.524Z,19.70
2022-11-25T18:16:43.021Z,19.70
2022-11-25T18:19:21.337Z,19.70
2022-11-25T18:21:57.711Z,19.70
2022-11-25T18:24:34.410Z,19.60
2022-11-25T18:27:15.408Z,19.60
2022-11-25T18:29:52.338Z,19.60
2022-11-25T18:32:29.806Z,19.70
2022-11-25T18:35:10.855Z,19.70
2022-11-25T18:37:47.454Z,19.70
2022-11-25T18:40:24.617Z,19.60
2022-11-25T18:43:03.265Z,19.60
2022-11-25T18:45:41.978Z,19.70
2022-11-25T18:48:22.166Z,19.70
2022-11-25T18:51:01.669Z,19.60
2022-11-25T18:53:37.507Z,19.60
2022-11-25T18:56:18.939Z,19.50
2022-11-25T18:58:57.150Z,19.60
2022-11-25T19:01:33.821Z,19.60
2022-11-25T19:04:10.533Z,19.60
2022-11-25T19:06:48.547Z,19.70
2022-11-25T19:09:24.531Z,19.70
2022-11-25T19:12:01.616Z,19.70
2022-11-25T19:14:41.042Z,19.70
2022-11-25T19:17:25.932Z,19.70
2022-11-25T19:20:02.468Z,19.70
2022-11-25T19:22:40.472Z,19.70
2022-11-25T19:25:17.437Z,19.60
2022-11-25T19:27:58.505Z,19.60
2022-11-25T19:30:36.807Z,19.60
2022-11-25T19:33:21.587Z,19.50
2022-11-25T19:35:58.338Z,19.50
2022-11-25T19:38:36.913Z,19.40
2022-11-25T19:41:14.159Z,19.60
2022-11-25T19:43:50.949Z,19.70
2022-11-25T19:46:46.324Z,19.90
2022-11-25T19:49:30.159Z,20.00
2022-11-25T19:52:06.794Z,20.20
2022-11-25T19:54:45.516Z,20.20
2022-11-25T19:57:23.853Z,20.40
2022-11-25T20:00:00.411Z,20.40
2022-11-25T20:02:44.489Z,20.40
2022-11-25T20:05:24.417Z,20.50
2022-11-25T20:08:00.682Z,20.60
2022-11-25T20:10:39.602Z,20.60
2022-11-25T20:13:16.136Z,20.70
2022-11-25T20:15:53.275Z,20.90
2022-11-25T20:18:31.885Z,21.00
2022-11-25T20:21:10.626Z,20.90
2022-11-25T20:23:49.395Z,20.90
2022-11-25T20:26:39.241Z,20.90
2022-11-25T20:29:24.718Z,20.80
2022-11-25T20:32:24.259Z,20.90
2022-11-25T20:35:00.833Z,21.20
2022-11-25T20:37:52.242Z,21.10
2022-11-25T20:40:34.749Z,21.00
2022-11-25T20:43:16.489Z,20.90
2022-11-25T20:45:53.331Z,20.90
2022-11-25T20:48:29.729Z,21.10
2022-11-25T20:51:06.822Z,21.20
2022-11-25T20:53:44.764Z,21.20
2022-11-25T20:56:23.501Z,21.30
2022-11-25T20:59:01.748Z,21.30
2022-11-25T21:01:38.848Z,21.20
2022-11-25T21:04:15.769Z,21.20
2022-11-25T21:06:52.512Z,21.20
2022-11-25T21:09:33.286Z,21.20
2022-11-25T21:12:09.385Z,21.20
2022-11-25T21:14:48.946Z,21.30
2022-11-25T21:17:25.388Z,21.40
2022-11-25T21:20:01.492Z,21.50
2022-11-25T21:22:41.174Z,21.40
2022-11-25T21:27:56.775Z,21.50
2022-11-25T21:33:16.533Z,21.50
2022-11-25T21:38:31.870Z,21.30
2022-11-25T21:59:28.169Z,21.20
2022-11-25T22:02:06.893Z,21.10
2022-11-25T22:04:44.237Z,21.00
2022-11-25T22:20:50.626Z,21.60
2022-11-25T23:00:16.086Z,22.30
2022-11-25T23:02:53.454Z,22.40
2022-11-25T23:05:34.375Z,22.20
2022-11-25T23:08:18.245Z,22.00
2022-11-25T23:10:54.805Z,22.00
2022-11-25T23:16:09.841Z,22.00
2022-11-25T23:26:42.525Z,22.40
